Ana Sayfa
METAR-TAF:

METAR-TAF

Havaalanları :

Sparta Community Airport (Hunter Field)

Sparta, Illinois, Amerika Birleşik Devletleri

Enlem: 38-08-56N, Boylam: 089-41-55W, yükseklik: 164 m

Güncel hava durumu gözlemi

Rapor saat 16:55 UTC de 39 dakika önce yapıldı.
Rüzgar güneybatıdan 6 kt
Sıcaklık 27°C
Nem 51%
Basınç 1017 hPa
Görüş mesafesi: 16.1 km
Açık gökyüzü

METAR: KSAR 121655Z AUTO 23006KT 10SM CLR 27/16 A3003 RMK AO2 T02730160

Saat: 12:34 (17:34 UTC)


TAF: eksik

4.000'den fazla havaalanı için hava durumu gözlemleri ve tahminleri (METAR ve TAF raporları).

Kullanılabilir istasyonlar harita üzerinde sarı ve kırmızı noktalarla gösterilir.

İstasyonun adını görmek için fareyi noktanın üzerinde gezdirin.

Sonrasında hava gözlem ve tahminlerini görmek için tıklayın.

Haritayı değiştirmek için: yaklaştırmak için siyah artı işaretli yeşil düğmeye ve uzaklaştırmak için de eksi işaretli düğmeye hızla tıklayın; bitişik haritalar için yeşil okları kullanın.


METAR-TAF: